Ascension Island, Ascension Island

3:53 PM GMT on February 11, 2016 (GMT +0000)
Ascension Aux Air Base / Wideawake Field | | Change Station
CLOSE
Current Station
Airport
Location: Ascension Island,
Elevation: 259 ft
Nearby Weather Stations

Elev 259 ft 7.97 °S, 14.41 °W | Updated 1 hour ago

Partly Cloudy
Partly Cloudy
86 °F
Feels Like 90 °F
N
14
Wind Variable Wind from SSE

Today
High -- | Low -- °F
--% Chance of Precip.
Yesterday
High -- | Low -- °F
Precip. -- in
Pressure 29.89 in
Visibility 6.2 miles
Clouds Few 2500 ft
Heat Index 90 °F
Dew Point 70 °F
Humidity 58%
Rainfall 0.00 in
Snow Depth Not available.
7:00 AM 7:23 PM
Waxing Crescent, 12% visible
METAR FHAW 111450Z 15012KT 9999 FEW025 30/21 Q1012 BLU NOSIG
Pressure 29.89 in
Visibility 6.2 miles
Clouds Few 2500 ft
Heat Index 90 °F
Dew Point 70 °F
Humidity 58%
Rainfall 0.00 in
Snow Depth Not available.
7:00 AM 7:23 PM
Waxing Crescent, 12% visible
METAR FHAW 111450Z 15012KT 9999 FEW025 30/21 Q1012 BLU NOSIG

10-Day Weather Forecast

No radar image for this location.
×

Almanac

Astronomy

Feb. 11, 2016 Rise Set
Actual Time
Civil Twilight
Nautical Twilight
Astronomical Twilight
Moon
Length of Visible Light
Length of Day
Tomorrow will be .
, % of the Moon is Illuminated

Today's Extremes

Country Highs Country Lows

Community

WunderPhotos

Upload Photos

1,892,081 photos uploaded!

WunderBlog® & News

Nearby

Air Quality

  Air Quality AQ Index Pollutant
Not available.

Snow Depth

Station Depth Elevation

Earthquake Activity

City Distance Mag. Time & Date
Minimum magnitude displayed is 2.5.

Coastal Water Temperatures

Place Temperature

Stations

Nearby Weather Stations

Station Location Temp. Windchill Dew Point Humidity Wind Precip. Elev Updated Type